sensor_id;sensor_type;location;lat;lon;timestamp;pressure;altitude;pressure_sealevel;temperature;humidity
49311;BME280;35177;45.900;5.946;2022-11-11T00:00:48;98930.94;;;7.16;100.00
49311;BME280;35177;45.900;5.946;2022-11-11T00:03:13;98922.75;;;6.99;100.00
49311;BME280;35177;45.900;5.946;2022-11-11T00:05:39;98916.13;;;7.00;100.00
49311;BME280;35177;45.900;5.946;2022-11-11T00:08:05;98926.28;;;6.94;100.00
49311;BME280;35177;45.900;5.946;2022-11-11T00:10:30;98928.94;;;6.84;100.00
49311;BME280;35177;45.900;5.946;2022-11-11T00:12:59;98936.81;;;6.53;100.00
49311;BME280;35177;45.900;5.946;2022-11-11T00:15:24;98940.72;;;6.57;100.00
49311;BME280;35177;45.900;5.946;2022-11-11T00:17:50;98941.88;;;6.61;100.00
49311;BME280;35177;45.900;5.946;2022-11-11T00:20:35;98939.81;;;6.51;100.00
49311;BME280;35177;45.900;5.946;2022-11-11T00:23:19;98945.53;;;6.45;100.00
49311;BME280;35177;45.900;5.946;2022-11-11T00:26:03;98950.66;;;6.36;100.00
49311;BME280;35177;45.900;5.946;2022-11-11T00:28:29;98945.78;;;6.43;100.00
49311;BME280;35177;45.900;5.946;2022-11-11T00:31:01;98951.31;;;6.43;100.00
49311;BME280;35177;45.900;5.946;2022-11-11T00:33:26;98945.91;;;6.53;100.00
49311;BME280;35177;45.900;5.946;2022-11-11T00:35:52;98953.00;;;6.27;100.00
49311;BME280;35177;45.900;5.946;2022-11-11T00:38:18;98952.97;;;6.44;100.00
49311;BME280;35177;45.900;5.946;2022-11-11T00:41:01;98964.28;;;6.25;100.00
49311;BME280;35177;45.900;5.946;2022-11-11T00:43:27;98963.34;;;6.37;100.00
49311;BME280;35177;45.900;5.946;2022-11-11T00:45:52;98961.94;;;6.34;100.00
49311;BME280;35177;45.900;5.946;2022-11-11T00:48:17;98953.69;;;6.56;100.00
49311;BME280;35177;45.900;5.946;2022-11-11T00:51:01;98953.88;;;6.50;100.00
49311;BME280;35177;45.900;5.946;2022-11-11T00:53:29;98961.44;;;6.59;100.00
49311;BME280;35177;45.900;5.946;2022-11-11T00:55:55;98962.91;;;6.67;100.00
49311;BME280;35177;45.900;5.946;2022-11-11T00:58:21;98958.31;;;6.73;100.00
49311;BME280;35177;45.900;5.946;2022-11-11T01:00:47;98963.38;;;6.81;100.00
49311;BME280;35177;45.900;5.946;2022-11-11T01:03:14;98960.81;;;6.74;100.00
49311;BME280;35177;45.900;5.946;2022-11-11T01:05:39;98963.81;;;6.73;100.00
49311;BME280;35177;45.900;5.946;2022-11-11T01:08:05;98970.31;;;6.62;100.00
49311;BME280;35177;45.900;5.946;2022-11-11T01:10:30;98975.81;;;6.62;100.00
49311;BME280;35177;45.900;5.946;2022-11-11T01:13:16;98969.06;;;6.52;100.00
49311;BME280;35177;45.900;5.946;2022-11-11T01:15:45;98974.47;;;6.25;100.00
49311;BME280;35177;45.900;5.946;2022-11-11T01:18:12;98971.63;;;6.37;100.00
49311;BME280;35177;45.900;5.946;2022-11-11T01:20:38;98989.09;;;6.25;100.00
49311;BME280;35177;45.900;5.946;2022-11-11T01:23:04;98983.41;;;5.98;100.00
49311;BME280;35177;45.900;5.946;2022-11-11T01:25:31;98978.41;;;5.95;100.00
49311;BME280;35177;45.900;5.946;2022-11-11T01:27:57;98988.25;;;5.91;100.00
49311;BME280;35177;45.900;5.946;2022-11-11T01:30:22;98985.66;;;5.84;100.00
49311;BME280;35177;45.900;5.946;2022-11-11T01:32:47;98992.50;;;5.82;100.00
49311;BME280;35177;45.900;5.946;2022-11-11T01:35:13;98993.94;;;5.84;100.00
49311;BME280;35177;45.900;5.946;2022-11-11T01:37:38;98999.16;;;6.15;100.00
49311;BME280;35177;45.900;5.946;2022-11-11T01:40:03;98999.47;;;6.18;100.00
49311;BME280;35177;45.900;5.946;2022-11-11T01:42:29;99003.53;;;6.16;100.00
49311;BME280;35177;45.900;5.946;2022-11-11T01:44:54;99002.97;;;6.31;100.00
49311;BME280;35177;45.900;5.946;2022-11-11T01:47:19;99009.72;;;6.40;100.00
49311;BME280;35177;45.900;5.946;2022-11-11T01:52:23;99004.91;;;6.52;100.00
49311;BME280;35177;45.900;5.946;2022-11-11T01:57:23;99015.53;;;6.61;100.00
49311;BME280;35177;45.900;5.946;2022-11-11T01:59:52;99027.25;;;6.51;100.00
49311;BME280;35177;45.900;5.946;2022-11-11T02:02:32;99025.16;;;6.58;100.00
49311;BME280;35177;45.900;5.946;2022-11-11T02:05:00;99014.50;;;6.67;100.00
49311;BME280;35177;45.900;5.946;2022-11-11T02:07:46;99018.03;;;6.62;100.00
49311;BME280;35177;45.900;5.946;2022-11-11T02:10:11;99023.81;;;6.61;100.00
49311;BME280;35177;45.900;5.946;2022-11-11T02:12:37;99023.41;;;6.52;100.00
49311;BME280;35177;45.900;5.946;2022-11-11T02:15:21;99017.63;;;6.53;100.00
49311;BME280;35177;45.900;5.946;2022-11-11T02:17:46;99018.38;;;6.49;100.00
49311;BME280;35177;45.900;5.946;2022-11-11T02:20:13;99021.69;;;6.29;100.00
49311;BME280;35177;45.900;5.946;2022-11-11T02:22:54;99024.69;;;6.10;100.00
49311;BME280;35177;45.900;5.946;2022-11-11T02:25:22;99022.53;;;6.12;100.00
49311;BME280;35177;45.900;5.946;2022-11-11T02:27:50;99031.13;;;5.99;100.00
49311;BME280;35177;45.900;5.946;2022-11-11T02:30:16;99025.75;;;5.92;100.00
49311;BME280;35177;45.900;5.946;2022-11-11T02:32:47;99029.53;;;5.74;100.00
49311;BME280;35177;45.900;5.946;2022-11-11T02:35:23;99021.81;;;5.71;100.00
49311;BME280;35177;45.900;5.946;2022-11-11T02:37:49;99025.81;;;5.97;100.00
49311;BME280;35177;45.900;5.946;2022-11-11T02:40:16;99031.09;;;5.82;100.00
49311;BME280;35177;45.900;5.946;2022-11-11T02:42:42;99031.66;;;5.84;100.00
49311;BME280;35177;45.900;5.946;2022-11-11T02:45:07;99029.50;;;5.40;100.00
49311;BME280;35177;45.900;5.946;2022-11-11T02:47:33;99028.06;;;5.37;100.00
49311;BME280;35177;45.900;5.946;2022-11-11T02:49:58;99030.47;;;5.34;100.00
49311;BME280;35177;45.900;5.946;2022-11-11T02:52:23;99031.03;;;5.19;100.00
49311;BME280;35177;45.900;5.946;2022-11-11T02:54:49;99023.34;;;5.21;100.00
49311;BME280;35177;45.900;5.946;2022-11-11T02:57:14;99026.78;;;4.99;100.00
49311;BME280;35177;45.900;5.946;2022-11-11T02:59:40;99039.38;;;5.24;100.00
49311;BME280;35177;45.900;5.946;2022-11-11T03:02:06;99038.16;;;5.20;100.00
49311;BME280;35177;45.900;5.946;2022-11-11T03:04:32;99051.88;;;5.03;100.00
49311;BME280;35177;45.900;5.946;2022-11-11T03:06:57;99057.97;;;5.05;100.00
49311;BME280;35177;45.900;5.946;2022-11-11T03:09:23;99055.66;;;5.13;100.00
49311;BME280;35177;45.900;5.946;2022-11-11T03:11:48;99052.84;;;5.37;100.00
49311;BME280;35177;45.900;5.946;2022-11-11T03:14:13;99054.22;;;5.11;100.00
49311;BME280;35177;45.900;5.946;2022-11-11T03:16:39;99054.63;;;5.03;100.00
49311;BME280;35177;45.900;5.946;2022-11-11T03:19:22;99055.63;;;4.73;100.00
49311;BME280;35177;45.900;5.946;2022-11-11T03:21:48;99062.34;;;4.65;100.00
49311;BME280;35177;45.900;5.946;2022-11-11T03:24:13;99066.88;;;4.71;100.00
49311;BME280;35177;45.900;5.946;2022-11-11T03:26:38;99071.06;;;4.86;100.00
49311;BME280;35177;45.900;5.946;2022-11-11T03:29:04;99072.94;;;4.85;100.00
49311;BME280;35177;45.900;5.946;2022-11-11T03:31:29;99068.66;;;4.77;100.00
49311;BME280;35177;45.900;5.946;2022-11-11T03:33:54;99072.72;;;4.75;100.00
49311;BME280;35177;45.900;5.946;2022-11-11T03:36:20;99069.75;;;4.53;100.00
49311;BME280;35177;45.900;5.946;2022-11-11T03:39:05;99074.78;;;4.44;100.00
49311;BME280;35177;45.900;5.946;2022-11-11T03:41:30;99069.41;;;4.49;100.00
49311;BME280;35177;45.900;5.946;2022-11-11T03:43:56;99073.22;;;4.60;100.00
49311;BME280;35177;45.900;5.946;2022-11-11T03:46:21;99085.06;;;4.72;100.00
49311;BME280;35177;45.900;5.946;2022-11-11T03:48:46;99092.56;;;4.89;100.00
49311;BME280;35177;45.900;5.946;2022-11-11T03:51:12;99088.94;;;5.00;100.00
49311;BME280;35177;45.900;5.946;2022-11-11T03:53:37;99093.72;;;5.05;100.00
49311;BME280;35177;45.900;5.946;2022-11-11T03:56:02;99105.00;;;5.03;100.00
49311;BME280;35177;45.900;5.946;2022-11-11T03:58:27;99103.91;;;4.92;100.00
49311;BME280;35177;45.900;5.946;2022-11-11T04:00:53;99113.75;;;4.76;100.00
49311;BME280;35177;45.900;5.946;2022-11-11T04:03:19;99105.84;;;4.56;100.00
49311;BME280;35177;45.900;5.946;2022-11-11T04:06:03;99116.72;;;4.63;100.00
49311;BME280;35177;45.900;5.946;2022-11-11T04:08:47;99121.03;;;4.71;100.00
49311;BME280;35177;45.900;5.946;2022-11-11T04:13:58;99120.44;;;4.92;100.00
49311;BME280;35177;45.900;5.946;2022-11-11T04:16:44;99119.00;;;4.78;100.00
49311;BME280;35177;45.900;5.946;2022-11-11T04:19:09;99127.13;;;4.73;100.00
49311;BME280;35177;45.900;5.946;2022-11-11T04:21:53;99115.78;;;4.81;100.00
49311;BME280;35177;45.900;5.946;2022-11-11T04:24:19;99119.25;;;4.76;100.00
49311;BME280;35177;45.900;5.946;2022-11-11T04:27:10;99116.25;;;4.66;100.00
49311;BME280;35177;45.900;5.946;2022-11-11T04:29:36;99117.22;;;4.60;100.00
49311;BME280;35177;45.900;5.946;2022-11-11T04:32:05;99119.25;;;4.53;100.00
49311;BME280;35177;45.900;5.946;2022-11-11T04:34:50;99119.72;;;4.61;100.00
49311;BME280;35177;45.900;5.946;2022-11-11T04:37:16;99125.09;;;4.44;100.00
49311;BME280;35177;45.900;5.946;2022-11-11T04:39:42;99123.03;;;4.28;100.00
49311;BME280;35177;45.900;5.946;2022-11-11T04:42:26;99117.31;;;4.53;100.00
49311;BME280;35177;45.900;5.946;2022-11-11T04:44:52;99122.88;;;4.23;100.00
49311;BME280;35177;45.900;5.946;2022-11-11T04:47:35;99128.66;;;4.33;100.00
49311;BME280;35177;45.900;5.946;2022-11-11T04:50:01;99135.69;;;4.29;100.00
49311;BME280;35177;45.900;5.946;2022-11-11T04:52:27;99143.94;;;4.29;100.00
49311;BME280;35177;45.900;5.946;2022-11-11T04:54:53;99146.47;;;4.42;100.00
49311;BME280;35177;45.900;5.946;2022-11-11T04:57:38;99147.91;;;4.45;100.00
49311;BME280;35177;45.900;5.946;2022-11-11T05:00:03;99153.03;;;4.29;100.00
49311;BME280;35177;45.900;5.946;2022-11-11T05:02:29;99140.13;;;4.30;100.00
49311;BME280;35177;45.900;5.946;2022-11-11T05:05:13;99147.31;;;4.43;100.00
49311;BME280;35177;45.900;5.946;2022-11-11T05:07:38;99149.94;;;4.38;100.00
49311;BME280;35177;45.900;5.946;2022-11-11T05:10:23;99146.13;;;4.50;100.00
49311;BME280;35177;45.900;5.946;2022-11-11T05:12:48;99145.88;;;4.40;100.00
49311;BME280;35177;45.900;5.946;2022-11-11T05:15:13;99146.91;;;4.27;100.00
49311;BME280;35177;45.900;5.946;2022-11-11T05:17:57;99144.41;;;4.26;100.00
49311;BME280;35177;45.900;5.946;2022-11-11T05:20:41;99152.34;;;4.34;100.00
49311;BME280;35177;45.900;5.946;2022-11-11T05:23:25;99153.91;;;4.54;100.00
49311;BME280;35177;45.900;5.946;2022-11-11T05:26:13;99154.63;;;4.61;100.00
49311;BME280;35177;45.900;5.946;2022-11-11T05:28:38;99150.81;;;4.74;100.00
49311;BME280;35177;45.900;5.946;2022-11-11T05:31:04;99157.97;;;4.87;100.00
49311;BME280;35177;45.900;5.946;2022-11-11T05:33:29;99168.63;;;4.95;100.00
49311;BME280;35177;45.900;5.946;2022-11-11T05:35:54;99169.91;;;5.16;100.00
49311;BME280;35177;45.900;5.946;2022-11-11T05:38:20;99170.28;;;5.20;100.00
49311;BME280;35177;45.900;5.946;2022-11-11T05:40:45;99175.66;;;5.26;100.00
49311;BME280;35177;45.900;5.946;2022-11-11T05:43:10;99173.03;;;5.31;100.00
49311;BME280;35177;45.900;5.946;2022-11-11T05:45:36;99178.75;;;5.42;100.00
49311;BME280;35177;45.900;5.946;2022-11-11T05:48:02;99169.28;;;5.50;100.00
49311;BME280;35177;45.900;5.946;2022-11-11T05:50:27;99168.78;;;5.53;100.00
49311;BME280;35177;45.900;5.946;2022-11-11T05:52:53;99163.63;;;5.56;100.00
49311;BME280;35177;45.900;5.946;2022-11-11T05:55:20;99164.84;;;5.60;100.00
49311;BME280;35177;45.900;5.946;2022-11-11T05:57:45;99160.75;;;5.63;100.00
49311;BME280;35177;45.900;5.946;2022-11-11T06:00:11;99165.28;;;5.69;100.00
49311;BME280;35177;45.900;5.946;2022-11-11T06:02:36;99166.47;;;5.73;100.00
49311;BME280;35177;45.900;5.946;2022-11-11T06:05:02;99167.41;;;5.79;100.00
49311;BME280;35177;45.900;5.946;2022-11-11T06:07:27;99171.69;;;5.87;100.00
49311;BME280;35177;45.900;5.946;2022-11-11T06:09:53;99171.44;;;5.88;100.00
49311;BME280;35177;45.900;5.946;2022-11-11T06:12:41;99178.28;;;5.86;100.00
49311;BME280;35177;45.900;5.946;2022-11-11T06:15:26;99169.91;;;5.81;100.00
49311;BME280;35177;45.900;5.946;2022-11-11T06:17:51;99174.81;;;5.78;100.00
49311;BME280;35177;45.900;5.946;2022-11-11T06:20:16;99177.81;;;5.77;100.00
49311;BME280;35177;45.900;5.946;2022-11-11T06:22:42;99175.16;;;5.82;100.00
49311;BME280;35177;45.900;5.946;2022-11-11T06:25:26;99176.22;;;5.93;100.00
49311;BME280;35177;45.900;5.946;2022-11-11T06:28:11;99175.84;;;5.89;100.00
49311;BME280;35177;45.900;5.946;2022-11-11T06:30:37;99176.41;;;6.03;100.00
49311;BME280;35177;45.900;5.946;2022-11-11T06:33:02;99169.09;;;5.97;100.00
49311;BME280;35177;45.900;5.946;2022-11-11T06:35:28;99169.28;;;5.90;100.00
49311;BME280;35177;45.900;5.946;2022-11-11T06:37:53;99164.84;;;5.89;100.00
49311;BME280;35177;45.900;5.946;2022-11-11T06:40:19;99158.00;;;5.92;100.00
49311;BME280;35177;45.900;5.946;2022-11-11T06:42:44;99164.72;;;5.96;100.00
49311;BME280;35177;45.900;5.946;2022-11-11T06:45:09;99163.16;;;6.00;100.00
49311;BME280;35177;45.900;5.946;2022-11-11T06:47:35;99169.56;;;6.06;100.00
49311;BME280;35177;45.900;5.946;2022-11-11T06:50:00;99172.28;;;6.18;100.00
49311;BME280;35177;45.900;5.946;2022-11-11T06:52:25;99171.22;;;6.19;100.00
49311;BME280;35177;45.900;5.946;2022-11-11T06:54:51;99179.91;;;6.27;100.00
49311;BME280;35177;45.900;5.946;2022-11-11T06:57:16;99175.16;;;6.40;100.00
49311;BME280;35177;45.900;5.946;2022-11-11T06:59:41;99178.19;;;6.38;100.00
49311;BME280;35177;45.900;5.946;2022-11-11T07:02:13;99172.66;;;6.38;100.00
49311;BME280;35177;45.900;5.946;2022-11-11T07:04:38;99181.03;;;6.43;100.00
49311;BME280;35177;45.900;5.946;2022-11-11T07:07:03;99176.91;;;6.46;100.00
49311;BME280;35177;45.900;5.946;2022-11-11T07:09:29;99182.53;;;6.51;100.00
49311;BME280;35177;45.900;5.946;2022-11-11T07:11:54;99180.41;;;6.41;100.00
49311;BME280;35177;45.900;5.946;2022-11-11T07:14:19;99190.56;;;6.53;100.00
49311;BME280;35177;45.900;5.946;2022-11-11T07:16:45;99200.91;;;6.46;100.00
49311;BME280;35177;45.900;5.946;2022-11-11T07:19:10;99209.25;;;6.34;100.00
49311;BME280;35177;45.900;5.946;2022-11-11T07:21:35;99212.28;;;6.49;100.00
49311;BME280;35177;45.900;5.946;2022-11-11T07:24:01;99210.09;;;6.51;100.00
49311;BME280;35177;45.900;5.946;2022-11-11T07:26:26;99219.88;;;6.42;100.00
49311;BME280;35177;45.900;5.946;2022-11-11T07:28:52;99216.13;;;6.48;100.00
49311;BME280;35177;45.900;5.946;2022-11-11T07:31:17;99218.16;;;6.53;100.00
49311;BME280;35177;45.900;5.946;2022-11-11T07:33:42;99222.25;;;6.50;100.00
49311;BME280;35177;45.900;5.946;2022-11-11T07:36:08;99224.00;;;6.56;100.00
49311;BME280;35177;45.900;5.946;2022-11-11T07:38:33;99223.00;;;6.63;100.00
49311;BME280;35177;45.900;5.946;2022-11-11T07:40:58;99228.28;;;6.64;100.00
49311;BME280;35177;45.900;5.946;2022-11-11T07:43:24;99226.09;;;6.66;100.00
49311;BME280;35177;45.900;5.946;2022-11-11T07:45:49;99238.06;;;6.72;100.00
49311;BME280;35177;45.900;5.946;2022-11-11T07:48:15;99235.38;;;6.60;100.00
49311;BME280;35177;45.900;5.946;2022-11-11T07:50:40;99226.69;;;6.85;100.00
49311;BME280;35177;45.900;5.946;2022-11-11T07:53:05;99234.16;;;7.02;100.00
49311;BME280;35177;45.900;5.946;2022-11-11T07:55:31;99227.38;;;6.93;100.00
49311;BME280;35177;45.900;5.946;2022-11-11T07:57:56;99234.97;;;7.02;100.00
49311;BME280;35177;45.900;5.946;2022-11-11T08:00:22;99229.13;;;7.16;100.00
49311;BME280;35177;45.900;5.946;2022-11-11T08:02:47;99233.63;;;7.22;100.00
49311;BME280;35177;45.900;5.946;2022-11-11T08:05:13;99238.63;;;7.25;100.00
49311;BME280;35177;45.900;5.946;2022-11-11T08:07:38;99240.31;;;7.26;100.00
49311;BME280;35177;45.900;5.946;2022-11-11T08:10:04;99233.16;;;7.08;100.00
49311;BME280;35177;45.900;5.946;2022-11-11T08:12:29;99233.16;;;7.08;100.00
49311;BME280;35177;45.900;5.946;2022-11-11T08:15:13;99228.84;;;7.17;100.00
49311;BME280;35177;45.900;5.946;2022-11-11T08:17:39;99224.59;;;7.10;100.00
49311;BME280;35177;45.900;5.946;2022-11-11T08:20:05;99231.88;;;7.16;100.00
49311;BME280;35177;45.900;5.946;2022-11-11T08:22:38;99224.25;;;7.23;100.00
49311;BME280;35177;45.900;5.946;2022-11-11T08:25:06;99220.88;;;7.38;100.00
49311;BME280;35177;45.900;5.946;2022-11-11T08:27:32;99221.78;;;7.44;100.00
49311;BME280;35177;45.900;5.946;2022-11-11T08:29:57;99221.44;;;7.57;100.00
49311;BME280;35177;45.900;5.946;2022-11-11T08:32:23;99228.34;;;7.37;100.00
49311;BME280;35177;45.900;5.946;2022-11-11T08:34:48;99229.44;;;7.36;100.00
49311;BME280;35177;45.900;5.946;2022-11-11T08:37:13;99228.03;;;7.56;100.00
49311;BME280;35177;45.900;5.946;2022-11-11T08:39:39;99231.97;;;7.60;100.00
49311;BME280;35177;45.900;5.946;2022-11-11T08:42:04;99238.47;;;7.71;100.00
49311;BME280;35177;45.900;5.946;2022-11-11T08:44:30;99241.03;;;7.78;100.00
49311;BME280;35177;45.900;5.946;2022-11-11T08:46:55;99244.00;;;7.71;100.00
49311;BME280;35177;45.900;5.946;2022-11-11T08:49:20;99231.91;;;7.77;100.00
49311;BME280;35177;45.900;5.946;2022-11-11T08:51:46;99234.72;;;7.82;100.00
49311;BME280;35177;45.900;5.946;2022-11-11T08:54:11;99234.88;;;7.93;100.00
49311;BME280;35177;45.900;5.946;2022-11-11T08:56:36;99239.06;;;7.95;100.00
49311;BME280;35177;45.900;5.946;2022-11-11T08:59:02;99240.69;;;7.96;100.00
49311;BME280;35177;45.900;5.946;2022-11-11T09:01:27;99228.06;;;8.00;100.00
49311;BME280;35177;45.900;5.946;2022-11-11T09:03:52;99231.63;;;8.01;100.00
49311;BME280;35177;45.900;5.946;2022-11-11T09:06:18;99232.16;;;7.98;100.00
49311;BME280;35177;45.900;5.946;2022-11-11T09:08:43;99232.22;;;8.03;100.00
49311;BME280;35177;45.900;5.946;2022-11-11T09:11:09;99235.75;;;7.98;100.00
49311;BME280;35177;45.900;5.946;2022-11-11T09:13:34;99245.47;;;8.01;100.00
49311;BME280;35177;45.900;5.946;2022-11-11T09:15:59;99249.59;;;7.98;100.00
49311;BME280;35177;45.900;5.946;2022-11-11T09:18:25;99248.75;;;7.98;100.00
49311;BME280;35177;45.900;5.946;2022-11-11T09:20:50;99253.50;;;8.02;100.00
49311;BME280;35177;45.900;5.946;2022-11-11T09:23:16;99259.03;;;8.02;100.00
49311;BME280;35177;45.900;5.946;2022-11-11T09:25:41;99259.66;;;8.10;100.00
49311;BME280;35177;45.900;5.946;2022-11-11T09:28:06;99250.88;;;8.13;100.00
49311;BME280;35177;45.900;5.946;2022-11-11T09:30:32;99251.31;;;8.04;100.00
49311;BME280;35177;45.900;5.946;2022-11-11T09:33:01;99253.19;;;7.99;100.00
49311;BME280;35177;45.900;5.946;2022-11-11T09:35:26;99260.84;;;8.14;100.00
49311;BME280;35177;45.900;5.946;2022-11-11T09:37:53;99255.16;;;8.26;100.00
49311;BME280;35177;45.900;5.946;2022-11-11T09:40:19;99260.03;;;8.41;100.00
49311;BME280;35177;45.900;5.946;2022-11-11T09:50:44;99263.50;;;8.80;100.00
49311;BME280;35177;45.900;5.946;2022-11-11T09:53:20;99268.81;;;8.87;100.00
49311;BME280;35177;45.900;5.946;2022-11-11T09:55:48;99257.00;;;8.97;100.00
49311;BME280;35177;45.900;5.946;2022-11-11T09:58:23;99261.84;;;9.12;100.00
49311;BME280;35177;45.900;5.946;2022-11-11T10:00:55;99263.25;;;9.14;100.00
49311;BME280;35177;45.900;5.946;2022-11-11T10:03:22;99267.41;;;9.12;100.00
49311;BME280;35177;45.900;5.946;2022-11-11T10:06:02;99272.34;;;9.10;100.00
49311;BME280;35177;45.900;5.946;2022-11-11T10:09:15;99273.28;;;9.21;100.00
49311;BME280;35177;45.900;5.946;2022-11-11T10:11:24;99271.53;;;9.47;100.00
49311;BME280;35177;45.900;5.946;2022-11-11T10:13:51;99259.59;;;10.63;100.00
49311;BME280;35177;45.900;5.946;2022-11-11T10:21:14;99251.78;;;11.63;100.00
49311;BME280;35177;45.900;5.946;2022-11-11T10:23:39;99249.88;;;11.38;100.00
49311;BME280;35177;45.900;5.946;2022-11-11T10:26:40;99250.91;;;11.78;100.00
49311;BME280;35177;45.900;5.946;2022-11-11T10:28:58;99247.06;;;11.69;100.00
49311;BME280;35177;45.900;5.946;2022-11-11T10:31:24;99240.59;;;11.89;100.00
49311;BME280;35177;45.900;5.946;2022-11-11T10:33:51;99236.16;;;11.98;100.00
49311;BME280;35177;45.900;5.946;2022-11-11T10:36:20;99229.44;;;12.54;100.00
49311;BME280;35177;45.900;5.946;2022-11-11T10:41:42;99222.97;;;12.64;100.00
49311;BME280;35177;45.900;5.946;2022-11-11T10:44:26;99218.03;;;12.56;100.00
49311;BME280;35177;45.900;5.946;2022-11-11T10:47:00;99211.78;;;13.09;100.00
49311;BME280;35177;45.900;5.946;2022-11-11T10:49:30;99205.16;;;13.29;100.00
49311;BME280;35177;45.900;5.946;2022-11-11T10:52:03;99203.78;;;12.63;100.00
49311;BME280;35177;45.900;5.946;2022-11-11T10:57:58;99196.06;;;13.18;100.00
49311;BME280;35177;45.900;5.946;2022-11-11T11:02:29;99182.09;;;13.53;100.00
49311;BME280;35177;45.900;5.946;2022-11-11T11:05:00;99182.50;;;13.41;100.00
49311;BME280;35177;45.900;5.946;2022-11-11T11:07:28;99176.97;;;13.31;100.00
49311;BME280;35177;45.900;5.946;2022-11-11T11:09:59;99177.91;;;13.50;100.00
49311;BME280;35177;45.900;5.946;2022-11-11T11:12:37;99166.13;;;13.59;100.00
49311;BME280;35177;45.900;5.946;2022-11-11T11:15:09;99160.22;;;13.36;100.00
49311;BME280;35177;45.900;5.946;2022-11-11T11:17:39;99161.03;;;13.37;100.00
49311;BME280;35177;45.900;5.946;2022-11-11T11:20:08;99151.44;;;13.48;100.00
49311;BME280;35177;45.900;5.946;2022-11-11T11:22:44;99147.16;;;13.31;100.00
49311;BME280;35177;45.900;5.946;2022-11-11T11:25:10;99145.84;;;13.24;100.00
49311;BME280;35177;45.900;5.946;2022-11-11T11:27:36;99133.84;;;13.23;100.00
49311;BME280;35177;45.900;5.946;2022-11-11T11:30:17;99137.94;;;13.31;100.00
49311;BME280;35177;45.900;5.946;2022-11-11T11:32:59;99129.38;;;13.22;100.00
49311;BME280;35177;45.900;5.946;2022-11-11T11:35:41;99129.94;;;13.24;100.00
49311;BME280;35177;45.900;5.946;2022-11-11T11:38:09;99130.38;;;13.07;100.00
49311;BME280;35177;45.900;5.946;2022-11-11T11:40:45;99122.63;;;13.28;100.00
49311;BME280;35177;45.900;5.946;2022-11-11T11:46:18;99122.34;;;13.30;100.00
49311;BME280;35177;45.900;5.946;2022-11-11T11:51:23;99107.13;;;13.46;100.00
49311;BME280;35177;45.900;5.946;2022-11-11T11:56:40;99106.72;;;13.58;100.00
49311;BME280;35177;45.900;5.946;2022-11-11T12:11:56;99080.59;;;13.49;100.00
49311;BME280;35177;45.900;5.946;2022-11-11T12:14:40;99068.59;;;13.24;100.00
49311;BME280;35177;45.900;5.946;2022-11-11T12:19:56;99067.41;;;13.79;100.00
49311;BME280;35177;45.900;5.946;2022-11-11T12:25:11;99051.09;;;13.67;100.00
49311;BME280;35177;45.900;5.946;2022-11-11T12:27:54;99050.75;;;13.49;100.00
49311;BME280;35177;45.900;5.946;2022-11-11T12:30:22;99045.78;;;13.46;100.00
49311;BME280;35177;45.900;5.946;2022-11-11T12:35:25;99036.75;;;13.74;100.00
49311;BME280;35177;45.900;5.946;2022-11-11T12:43:20;99030.13;;;13.70;100.00
49311;BME280;35177;45.900;5.946;2022-11-11T12:45:51;99028.53;;;13.82;100.00
49311;BME280;35177;45.900;5.946;2022-11-11T12:56:06;99011.25;;;14.00;100.00
49311;BME280;35177;45.900;5.946;2022-11-11T12:58:29;98999.44;;;13.89;100.00
49311;BME280;35177;45.900;5.946;2022-11-11T13:01:10;99001.06;;;13.90;100.00
49311;BME280;35177;45.900;5.946;2022-11-11T13:03:55;99008.09;;;13.87;100.00
49311;BME280;35177;45.900;5.946;2022-11-11T13:11:43;98983.06;;;13.44;100.00
49311;BME280;35177;45.900;5.946;2022-11-11T13:16:56;98977.88;;;13.75;100.00
49311;BME280;35177;45.900;5.946;2022-11-11T13:24:43;98968.19;;;13.87;100.00
49311;BME280;35177;45.900;5.946;2022-11-11T13:27:18;98965.47;;;14.01;100.00
49311;BME280;35177;45.900;5.946;2022-11-11T13:32:30;98962.31;;;14.21;100.00
49311;BME280;35177;45.900;5.946;2022-11-11T13:34:57;98957.41;;;13.99;100.00
49311;BME280;35177;45.900;5.946;2022-11-11T13:37:29;98943.19;;;13.81;100.00
49311;BME280;35177;45.900;5.946;2022-11-11T13:40:06;98939.53;;;13.81;100.00
49311;BME280;35177;45.900;5.946;2022-11-11T13:42:35;98939.31;;;13.96;100.00
49311;BME280;35177;45.900;5.946;2022-11-11T13:45:02;98934.22;;;13.98;100.00
49311;BME280;35177;45.900;5.946;2022-11-11T13:47:37;98938.06;;;14.03;100.00
49311;BME280;35177;45.900;5.946;2022-11-11T13:52:36;98932.06;;;13.95;100.00
49311;BME280;35177;45.900;5.946;2022-11-11T13:55:03;98930.94;;;13.96;100.00
49311;BME280;35177;45.900;5.946;2022-11-11T13:57:30;98922.59;;;14.10;100.00
49311;BME280;35177;45.900;5.946;2022-11-11T14:00:02;98914.31;;;14.05;100.00
49311;BME280;35177;45.900;5.946;2022-11-11T14:02:34;98914.31;;;14.05;100.00
49311;BME280;35177;45.900;5.946;2022-11-11T14:12:44;98920.69;;;13.73;100.00
49311;BME280;35177;45.900;5.946;2022-11-11T14:17:54;98919.50;;;13.79;100.00
49311;BME280;35177;45.900;5.946;2022-11-11T14:25:40;98920.09;;;13.57;100.00
49311;BME280;35177;45.900;5.946;2022-11-11T14:28:51;98918.47;;;13.56;100.00
49311;BME280;35177;45.900;5.946;2022-11-11T14:30:54;98925.63;;;13.62;100.00
49311;BME280;35177;45.900;5.946;2022-11-11T14:33:44;98927.03;;;13.78;100.00
49311;BME280;35177;45.900;5.946;2022-11-11T14:43:47;98925.09;;;13.79;100.00
49311;BME280;35177;45.900;5.946;2022-11-11T14:46:13;98923.88;;;13.66;100.00
49311;BME280;35177;45.900;5.946;2022-11-11T14:53:56;98920.56;;;13.45;100.00
49311;BME280;35177;45.900;5.946;2022-11-11T14:56:21;98919.72;;;13.44;100.00
49311;BME280;35177;45.900;5.946;2022-11-11T14:58:48;98927.09;;;13.35;100.00
49311;BME280;35177;45.900;5.946;2022-11-11T15:01:17;98921.97;;;13.23;100.00
49311;BME280;35177;45.900;5.946;2022-11-11T15:03:44;98916.22;;;13.14;100.00
49311;BME280;35177;45.900;5.946;2022-11-11T15:06:24;98925.22;;;13.11;100.00